sensor_id;sensor_type;location;lat;lon;timestamp;P1;durP1;ratioP1;P2;durP2;ratioP2
77880;SDS011;67077;50.298;18.996;2023-02-01T00:01:09;20.80;;;9.40;;
77880;SDS011;67077;50.298;18.996;2023-02-01T00:03:36;21.80;;;10.60;;
77880;SDS011;67077;50.298;18.996;2023-02-01T00:06:03;25.40;;;11.20;;
77880;SDS011;67077;50.298;18.996;2023-02-01T00:08:30;21.90;;;11.00;;
77880;SDS011;67077;50.298;18.996;2023-02-01T00:10:59;22.10;;;10.20;;
77880;SDS011;67077;50.298;18.996;2023-02-01T00:13:35;22.30;;;11.20;;
77880;SDS011;67077;50.298;18.996;2023-02-01T00:16:05;19.30;;;10.40;;
77880;SDS011;67077;50.298;18.996;2023-02-01T00:18:33;19.80;;;9.70;;
77880;SDS011;67077;50.298;18.996;2023-02-01T00:21:01;19.60;;;9.60;;
77880;SDS011;67077;50.298;18.996;2023-02-01T00:23:31;22.60;;;10.00;;
77880;SDS011;67077;50.298;18.996;2023-02-01T00:26:04;21.00;;;10.00;;
77880;SDS011;67077;50.298;18.996;2023-02-01T00:28:32;19.60;;;9.70;;
77880;SDS011;67077;50.298;18.996;2023-02-01T00:31:00;20.00;;;9.80;;
77880;SDS011;67077;50.298;18.996;2023-02-01T00:33:28;20.00;;;10.10;;
77880;SDS011;67077;50.298;18.996;2023-02-01T00:35:57;21.30;;;11.00;;
77880;SDS011;67077;50.298;18.996;2023-02-01T00:38:26;21.60;;;9.50;;
77880;SDS011;67077;50.298;18.996;2023-02-01T00:40:54;19.20;;;9.30;;
77880;SDS011;67077;50.298;18.996;2023-02-01T00:43:21;21.40;;;9.20;;
77880;SDS011;67077;50.298;18.996;2023-02-01T00:45:48;18.80;;;9.00;;
77880;SDS011;67077;50.298;18.996;2023-02-01T00:48:14;14.40;;;6.80;;
77880;SDS011;67077;50.298;18.996;2023-02-01T00:50:42;13.20;;;6.10;;
77880;SDS011;67077;50.298;18.996;2023-02-01T00:53:09;12.10;;;5.60;;
77880;SDS011;67077;50.298;18.996;2023-02-01T00:55:37;10.20;;;4.60;;
77880;SDS011;67077;50.298;18.996;2023-02-01T00:58:03;6.30;;;3.60;;
77880;SDS011;67077;50.298;18.996;2023-02-01T01:00:32;9.00;;;3.90;;
77880;SDS011;67077;50.298;18.996;2023-02-01T01:02:59;7.70;;;4.30;;
77880;SDS011;67077;50.298;18.996;2023-02-01T01:05:26;11.10;;;5.50;;
77880;SDS011;67077;50.298;18.996;2023-02-01T01:07:54;12.50;;;5.10;;
77880;SDS011;67077;50.298;18.996;2023-02-01T01:10:20;12.70;;;5.40;;
77880;SDS011;67077;50.298;18.996;2023-02-01T01:12:47;10.20;;;4.30;;
77880;SDS011;67077;50.298;18.996;2023-02-01T01:15:14;6.40;;;3.30;;
77880;SDS011;67077;50.298;18.996;2023-02-01T01:17:40;7.60;;;2.30;;
77880;SDS011;67077;50.298;18.996;2023-02-01T01:20:07;4.60;;;2.00;;
77880;SDS011;67077;50.298;18.996;2023-02-01T01:22:35;4.30;;;1.50;;
77880;SDS011;67077;50.298;18.996;2023-02-01T01:25:02;4.80;;;1.60;;
77880;SDS011;67077;50.298;18.996;2023-02-01T01:27:29;4.60;;;1.80;;
77880;SDS011;67077;50.298;18.996;2023-02-01T01:29:56;5.40;;;2.20;;
77880;SDS011;67077;50.298;18.996;2023-02-01T01:32:22;7.30;;;2.30;;
77880;SDS011;67077;50.298;18.996;2023-02-01T01:34:49;7.70;;;2.20;;
77880;SDS011;67077;50.298;18.996;2023-02-01T01:37:16;8.70;;;2.60;;
77880;SDS011;67077;50.298;18.996;2023-02-01T01:39:42;9.40;;;2.80;;
77880;SDS011;67077;50.298;18.996;2023-02-01T01:42:10;5.90;;;1.90;;
77880;SDS011;67077;50.298;18.996;2023-02-01T01:47:26;5.10;;;1.70;;
77880;SDS011;67077;50.298;18.996;2023-02-01T01:50:00;5.60;;;1.80;;
77880;SDS011;67077;50.298;18.996;2023-02-01T01:52:28;9.80;;;2.30;;
77880;SDS011;67077;50.298;18.996;2023-02-01T01:54:55;11.30;;;2.90;;
77880;SDS011;67077;50.298;18.996;2023-02-01T01:57:25;7.50;;;2.20;;
77880;SDS011;67077;50.298;18.996;2023-02-01T01:59:59;8.10;;;2.00;;
77880;SDS011;67077;50.298;18.996;2023-02-01T02:02:34;6.20;;;1.80;;
77880;SDS011;67077;50.298;18.996;2023-02-01T02:05:02;7.30;;;1.70;;
77880;SDS011;67077;50.298;18.996;2023-02-01T02:07:32;3.60;;;1.40;;
77880;SDS011;67077;50.298;18.996;2023-02-01T02:10:07;6.70;;;1.60;;
77880;SDS011;67077;50.298;18.996;2023-02-01T02:12:38;7.80;;;1.60;;
77880;SDS011;67077;50.298;18.996;2023-02-01T02:15:10;5.10;;;1.40;;
77880;SDS011;67077;50.298;18.996;2023-02-01T02:17:43;5.40;;;2.20;;
77880;SDS011;67077;50.298;18.996;2023-02-01T02:20:45;11.10;;;2.80;;
77880;SDS011;67077;50.298;18.996;2023-02-01T02:48:55;6.40;;;1.80;;
77880;SDS011;67077;50.298;18.996;2023-02-01T02:51:32;7.20;;;2.10;;
77880;SDS011;67077;50.298;18.996;2023-02-01T02:54:26;7.70;;;2.40;;
77880;SDS011;67077;50.298;18.996;2023-02-01T02:57:30;4.70;;;1.70;;
77880;SDS011;67077;50.298;18.996;2023-02-01T03:00:21;5.50;;;1.90;;
77880;SDS011;67077;50.298;18.996;2023-02-01T03:03:12;5.60;;;1.90;;
77880;SDS011;67077;50.298;18.996;2023-02-01T03:05:57;5.70;;;2.10;;
77880;SDS011;67077;50.298;18.996;2023-02-01T03:08:25;5.70;;;2.00;;
77880;SDS011;67077;50.298;18.996;2023-02-01T03:16:23;4.10;;;2.00;;
77880;SDS011;67077;50.298;18.996;2023-02-01T03:19:05;5.50;;;2.00;;
77880;SDS011;67077;50.298;18.996;2023-02-01T03:21:53;5.30;;;2.10;;
77880;SDS011;67077;50.298;18.996;2023-02-01T03:27:05;4.60;;;2.30;;
77880;SDS011;67077;50.298;18.996;2023-02-01T03:29:39;6.00;;;1.90;;
77880;SDS011;67077;50.298;18.996;2023-02-01T03:32:12;7.60;;;2.30;;
77880;SDS011;67077;50.298;18.996;2023-02-01T03:34:38;4.70;;;1.80;;
77880;SDS011;67077;50.298;18.996;2023-02-01T03:37:06;3.80;;;1.90;;
77880;SDS011;67077;50.298;18.996;2023-02-01T03:39:39;5.70;;;1.90;;
77880;SDS011;67077;50.298;18.996;2023-02-01T03:42:22;6.60;;;2.50;;
77880;SDS011;67077;50.298;18.996;2023-02-01T03:44:54;9.70;;;3.00;;
77880;SDS011;67077;50.298;18.996;2023-02-01T03:47:40;5.60;;;2.80;;
77880;SDS011;67077;50.298;18.996;2023-02-01T03:50:13;7.70;;;2.30;;
77880;SDS011;67077;50.298;18.996;2023-02-01T03:52:58;7.50;;;2.70;;
77880;SDS011;67077;50.298;18.996;2023-02-01T03:55:34;9.00;;;3.40;;
77880;SDS011;67077;50.298;18.996;2023-02-01T03:58:07;9.00;;;3.50;;
77880;SDS011;67077;50.298;18.996;2023-02-01T04:00:39;10.30;;;3.40;;
77880;SDS011;67077;50.298;18.996;2023-02-01T04:03:07;6.20;;;2.60;;
77880;SDS011;67077;50.298;18.996;2023-02-01T04:05:36;4.70;;;1.70;;
77880;SDS011;67077;50.298;18.996;2023-02-01T04:08:03;4.60;;;2.20;;
77880;SDS011;67077;50.298;18.996;2023-02-01T04:10:31;5.20;;;2.00;;
77880;SDS011;67077;50.298;18.996;2023-02-01T04:12:58;5.90;;;2.30;;
77880;SDS011;67077;50.298;18.996;2023-02-01T04:15:24;7.00;;;2.40;;
77880;SDS011;67077;50.298;18.996;2023-02-01T04:17:51;4.70;;;2.10;;
77880;SDS011;67077;50.298;18.996;2023-02-01T04:20:18;5.40;;;2.10;;
77880;SDS011;67077;50.298;18.996;2023-02-01T04:22:45;4.80;;;2.00;;
77880;SDS011;67077;50.298;18.996;2023-02-01T04:25:12;4.50;;;2.00;;
77880;SDS011;67077;50.298;18.996;2023-02-01T04:27:39;7.10;;;2.70;;
77880;SDS011;67077;50.298;18.996;2023-02-01T04:30:06;7.90;;;3.00;;
77880;SDS011;67077;50.298;18.996;2023-02-01T04:32:36;10.00;;;3.30;;
77880;SDS011;67077;50.298;18.996;2023-02-01T04:35:03;8.10;;;3.10;;
77880;SDS011;67077;50.298;18.996;2023-02-01T04:37:30;8.10;;;3.60;;
77880;SDS011;67077;50.298;18.996;2023-02-01T04:39:57;10.10;;;4.20;;
77880;SDS011;67077;50.298;18.996;2023-02-01T04:42:24;10.60;;;4.40;;
77880;SDS011;67077;50.298;18.996;2023-02-01T04:44:51;10.00;;;4.30;;
77880;SDS011;67077;50.298;18.996;2023-02-01T04:47:18;7.70;;;3.60;;
77880;SDS011;67077;50.298;18.996;2023-02-01T04:49:45;7.60;;;3.60;;
77880;SDS011;67077;50.298;18.996;2023-02-01T04:52:12;8.40;;;4.00;;
77880;SDS011;67077;50.298;18.996;2023-02-01T04:54:38;8.80;;;3.70;;
77880;SDS011;67077;50.298;18.996;2023-02-01T04:57:06;9.10;;;4.20;;
77880;SDS011;67077;50.298;18.996;2023-02-01T04:59:33;10.10;;;3.90;;
77880;SDS011;67077;50.298;18.996;2023-02-01T05:01:59;8.80;;;4.10;;
77880;SDS011;67077;50.298;18.996;2023-02-01T05:04:26;9.90;;;3.90;;
77880;SDS011;67077;50.298;18.996;2023-02-01T05:06:53;12.20;;;4.00;;
77880;SDS011;67077;50.298;18.996;2023-02-01T05:09:19;14.20;;;5.10;;
77880;SDS011;67077;50.298;18.996;2023-02-01T05:11:48;11.60;;;4.60;;
77880;SDS011;67077;50.298;18.996;2023-02-01T05:14:33;13.70;;;5.60;;
77880;SDS011;67077;50.298;18.996;2023-02-01T05:17:01;15.40;;;6.20;;
77880;SDS011;67077;50.298;18.996;2023-02-01T05:19:27;15.60;;;6.50;;
77880;SDS011;67077;50.298;18.996;2023-02-01T05:21:54;24.00;;;8.20;;
77880;SDS011;67077;50.298;18.996;2023-02-01T05:24:21;22.60;;;9.20;;
77880;SDS011;67077;50.298;18.996;2023-02-01T05:26:48;22.30;;;9.00;;
77880;SDS011;67077;50.298;18.996;2023-02-01T05:29:15;23.00;;;8.60;;
77880;SDS011;67077;50.298;18.996;2023-02-01T05:31:46;21.10;;;9.20;;
77880;SDS011;67077;50.298;18.996;2023-02-01T05:34:13;18.90;;;8.30;;
77880;SDS011;67077;50.298;18.996;2023-02-01T05:36:44;18.60;;;8.10;;
77880;SDS011;67077;50.298;18.996;2023-02-01T05:39:11;18.70;;;8.10;;
77880;SDS011;67077;50.298;18.996;2023-02-01T05:41:37;17.00;;;7.40;;
77880;SDS011;67077;50.298;18.996;2023-02-01T05:44:04;18.40;;;7.80;;
77880;SDS011;67077;50.298;18.996;2023-02-01T05:46:34;19.40;;;7.30;;
77880;SDS011;67077;50.298;18.996;2023-02-01T05:49:02;18.30;;;6.80;;
77880;SDS011;67077;50.298;18.996;2023-02-01T05:51:31;19.20;;;7.30;;
77880;SDS011;67077;50.298;18.996;2023-02-01T05:53:58;21.30;;;7.70;;
77880;SDS011;67077;50.298;18.996;2023-02-01T05:56:24;15.20;;;6.80;;
77880;SDS011;67077;50.298;18.996;2023-02-01T05:58:51;17.30;;;7.90;;
77880;SDS011;67077;50.298;18.996;2023-02-01T06:01:18;15.70;;;7.10;;
77880;SDS011;67077;50.298;18.996;2023-02-01T06:03:45;16.70;;;6.70;;
77880;SDS011;67077;50.298;18.996;2023-02-01T06:06:11;16.90;;;6.30;;
77880;SDS011;67077;50.298;18.996;2023-02-01T06:08:38;21.10;;;7.30;;
77880;SDS011;67077;50.298;18.996;2023-02-01T06:11:06;19.00;;;7.50;;
77880;SDS011;67077;50.298;18.996;2023-02-01T06:13:34;21.70;;;7.50;;
77880;SDS011;67077;50.298;18.996;2023-02-01T06:16:04;15.30;;;7.00;;
77880;SDS011;67077;50.298;18.996;2023-02-01T06:18:33;20.50;;;6.80;;
77880;SDS011;67077;50.298;18.996;2023-02-01T06:21:01;20.10;;;7.80;;
77880;SDS011;67077;50.298;18.996;2023-02-01T06:23:29;20.60;;;8.30;;
77880;SDS011;67077;50.298;18.996;2023-02-01T06:25:58;18.90;;;7.80;;
77880;SDS011;67077;50.298;18.996;2023-02-01T06:28:30;17.50;;;7.30;;
77880;SDS011;67077;50.298;18.996;2023-02-01T06:30:57;17.10;;;6.50;;
77880;SDS011;67077;50.298;18.996;2023-02-01T06:33:24;15.60;;;7.10;;
77880;SDS011;67077;50.298;18.996;2023-02-01T06:35:59;20.30;;;7.20;;
77880;SDS011;67077;50.298;18.996;2023-02-01T06:38:28;20.00;;;6.90;;
77880;SDS011;67077;50.298;18.996;2023-02-01T06:40:56;15.50;;;6.60;;
77880;SDS011;67077;50.298;18.996;2023-02-01T06:43:24;15.70;;;6.30;;
77880;SDS011;67077;50.298;18.996;2023-02-01T06:45:53;16.30;;;6.00;;
77880;SDS011;67077;50.298;18.996;2023-02-01T06:48:25;17.70;;;6.80;;
77880;SDS011;67077;50.298;18.996;2023-02-01T06:50:51;18.30;;;7.90;;
77880;SDS011;67077;50.298;18.996;2023-02-01T06:53:18;18.50;;;7.10;;
77880;SDS011;67077;50.298;18.996;2023-02-01T06:55:55;19.70;;;6.70;;
77880;SDS011;67077;50.298;18.996;2023-02-01T06:58:23;17.60;;;6.50;;
77880;SDS011;67077;50.298;18.996;2023-02-01T07:00:50;17.30;;;6.40;;
77880;SDS011;67077;50.298;18.996;2023-02-01T07:03:20;16.80;;;6.60;;
77880;SDS011;67077;50.298;18.996;2023-02-01T07:05:47;19.40;;;6.50;;
77880;SDS011;67077;50.298;18.996;2023-02-01T07:08:14;18.00;;;7.20;;
77880;SDS011;67077;50.298;18.996;2023-02-01T07:10:41;16.20;;;5.60;;
77880;SDS011;67077;50.298;18.996;2023-02-01T07:13:08;23.30;;;6.80;;
77880;SDS011;67077;50.298;18.996;2023-02-01T07:15:34;23.20;;;7.30;;
77880;SDS011;67077;50.298;18.996;2023-02-01T07:18:01;20.00;;;7.30;;
77880;SDS011;67077;50.298;18.996;2023-02-01T07:20:28;23.70;;;8.60;;
77880;SDS011;67077;50.298;18.996;2023-02-01T07:22:56;24.90;;;8.20;;
77880;SDS011;67077;50.298;18.996;2023-02-01T07:25:24;20.40;;;7.40;;
77880;SDS011;67077;50.298;18.996;2023-02-01T07:27:51;22.90;;;7.70;;
77880;SDS011;67077;50.298;18.996;2023-02-01T07:30:19;22.10;;;7.10;;
77880;SDS011;67077;50.298;18.996;2023-02-01T07:32:46;25.10;;;7.60;;
77880;SDS011;67077;50.298;18.996;2023-02-01T07:35:13;21.70;;;7.80;;
77880;SDS011;67077;50.298;18.996;2023-02-01T07:37:40;23.90;;;8.20;;
77880;SDS011;67077;50.298;18.996;2023-02-01T07:40:07;22.00;;;8.00;;
77880;SDS011;67077;50.298;18.996;2023-02-01T07:42:35;21.80;;;8.60;;
77880;SDS011;67077;50.298;18.996;2023-02-01T07:45:02;26.90;;;9.30;;
77880;SDS011;67077;50.298;18.996;2023-02-01T07:47:29;26.60;;;8.50;;
77880;SDS011;67077;50.298;18.996;2023-02-01T07:49:56;24.70;;;9.10;;
77880;SDS011;67077;50.298;18.996;2023-02-01T07:52:23;26.80;;;9.20;;
77880;SDS011;67077;50.298;18.996;2023-02-01T07:54:50;25.20;;;9.00;;
77880;SDS011;67077;50.298;18.996;2023-02-01T07:57:16;25.00;;;9.20;;
77880;SDS011;67077;50.298;18.996;2023-02-01T07:59:46;20.30;;;8.30;;
77880;SDS011;67077;50.298;18.996;2023-02-01T08:02:33;21.40;;;8.50;;
77880;SDS011;67077;50.298;18.996;2023-02-01T08:05:00;23.90;;;9.60;;
77880;SDS011;67077;50.298;18.996;2023-02-01T08:07:27;25.80;;;9.30;;
77880;SDS011;67077;50.298;18.996;2023-02-01T08:09:53;25.20;;;9.90;;
77880;SDS011;67077;50.298;18.996;2023-02-01T08:12:20;25.50;;;10.00;;
77880;SDS011;67077;50.298;18.996;2023-02-01T08:14:47;27.40;;;11.50;;
77880;SDS011;67077;50.298;18.996;2023-02-01T08:17:14;26.10;;;11.00;;
77880;SDS011;67077;50.298;18.996;2023-02-01T08:19:41;31.70;;;12.30;;
77880;SDS011;67077;50.298;18.996;2023-02-01T08:22:08;31.70;;;12.40;;
77880;SDS011;67077;50.298;18.996;2023-02-01T08:24:35;27.90;;;11.30;;
77880;SDS011;67077;50.298;18.996;2023-02-01T08:27:04;25.90;;;11.00;;
77880;SDS011;67077;50.298;18.996;2023-02-01T08:29:32;25.60;;;11.10;;
77880;SDS011;67077;50.298;18.996;2023-02-01T08:31:59;26.80;;;11.90;;
77880;SDS011;67077;50.298;18.996;2023-02-01T08:34:26;29.50;;;11.20;;
77880;SDS011;67077;50.298;18.996;2023-02-01T08:36:54;32.00;;;12.00;;
77880;SDS011;67077;50.298;18.996;2023-02-01T08:39:25;28.30;;;10.90;;
77880;SDS011;67077;50.298;18.996;2023-02-01T08:41:53;27.20;;;11.00;;
77880;SDS011;67077;50.298;18.996;2023-02-01T08:44:39;31.80;;;11.80;;
77880;SDS011;67077;50.298;18.996;2023-02-01T08:47:07;30.70;;;12.30;;
77880;SDS011;67077;50.298;18.996;2023-02-01T08:49:35;30.50;;;12.80;;
77880;SDS011;67077;50.298;18.996;2023-02-01T08:52:03;30.70;;;11.50;;
77880;SDS011;67077;50.298;18.996;2023-02-01T08:54:30;30.50;;;12.30;;
77880;SDS011;67077;50.298;18.996;2023-02-01T08:56:57;29.00;;;11.10;;
77880;SDS011;67077;50.298;18.996;2023-02-01T08:59:25;30.30;;;11.30;;
77880;SDS011;67077;50.298;18.996;2023-02-01T09:01:53;30.40;;;12.10;;
77880;SDS011;67077;50.298;18.996;2023-02-01T09:04:22;26.80;;;10.60;;
77880;SDS011;67077;50.298;18.996;2023-02-01T09:06:50;30.20;;;11.40;;
77880;SDS011;67077;50.298;18.996;2023-02-01T09:09:19;27.40;;;10.50;;
77880;SDS011;67077;50.298;18.996;2023-02-01T09:11:46;31.10;;;11.60;;
77880;SDS011;67077;50.298;18.996;2023-02-01T09:14:13;24.80;;;9.30;;
77880;SDS011;67077;50.298;18.996;2023-02-01T09:16:40;28.00;;;10.90;;
77880;SDS011;67077;50.298;18.996;2023-02-01T09:19:07;26.60;;;9.70;;
77880;SDS011;67077;50.298;18.996;2023-02-01T09:21:34;25.00;;;10.00;;
77880;SDS011;67077;50.298;18.996;2023-02-01T09:24:01;24.50;;;9.60;;
77880;SDS011;67077;50.298;18.996;2023-02-01T09:26:30;27.80;;;10.40;;
77880;SDS011;67077;50.298;18.996;2023-02-01T09:28:57;27.80;;;10.50;;
77880;SDS011;67077;50.298;18.996;2023-02-01T09:31:24;28.10;;;11.00;;
77880;SDS011;67077;50.298;18.996;2023-02-01T09:33:51;26.60;;;10.80;;
77880;SDS011;67077;50.298;18.996;2023-02-01T09:36:17;30.70;;;12.30;;
77880;SDS011;67077;50.298;18.996;2023-02-01T09:38:46;29.00;;;11.30;;
77880;SDS011;67077;50.298;18.996;2023-02-01T09:46:59;29.70;;;12.30;;
77880;SDS011;67077;50.298;18.996;2023-02-01T09:49:30;32.70;;;13.20;;
77880;SDS011;67077;50.298;18.996;2023-02-01T09:52:13;30.00;;;12.60;;
77880;SDS011;67077;50.298;18.996;2023-02-01T09:54:49;30.60;;;13.50;;
77880;SDS011;67077;50.298;18.996;2023-02-01T09:57:49;27.50;;;11.50;;
77880;SDS011;67077;50.298;18.996;2023-02-01T10:00:24;33.90;;;14.30;;
77880;SDS011;67077;50.298;18.996;2023-02-01T10:02:55;29.20;;;12.70;;
77880;SDS011;67077;50.298;18.996;2023-02-01T10:05:30;30.80;;;12.30;;
77880;SDS011;67077;50.298;18.996;2023-02-01T10:11:04;30.90;;;12.50;;
77880;SDS011;67077;50.298;18.996;2023-02-01T10:13:49;35.10;;;12.80;;
77880;SDS011;67077;50.298;18.996;2023-02-01T10:21:54;26.00;;;10.70;;
77880;SDS011;67077;50.298;18.996;2023-02-01T10:24:34;27.90;;;10.70;;
77880;SDS011;67077;50.298;18.996;2023-02-01T10:27:13;25.80;;;11.10;;
77880;SDS011;67077;50.298;18.996;2023-02-01T10:29:54;32.70;;;11.40;;
77880;SDS011;67077;50.298;18.996;2023-02-01T10:32:29;29.50;;;11.40;;
77880;SDS011;67077;50.298;18.996;2023-02-01T10:34:59;32.20;;;11.60;;
77880;SDS011;67077;50.298;18.996;2023-02-01T10:37:31;26.60;;;11.30;;
77880;SDS011;67077;50.298;18.996;2023-02-01T10:40:21;29.60;;;11.20;;
77880;SDS011;67077;50.298;18.996;2023-02-01T10:42:52;27.10;;;11.90;;
77880;SDS011;67077;50.298;18.996;2023-02-01T10:45:26;32.00;;;12.60;;
77880;SDS011;67077;50.298;18.996;2023-02-01T10:47:55;29.80;;;12.10;;
77880;SDS011;67077;50.298;18.996;2023-02-01T10:52:59;26.20;;;11.70;;
77880;SDS011;67077;50.298;18.996;2023-02-01T10:58:16;27.30;;;11.20;;
77880;SDS011;67077;50.298;18.996;2023-02-01T11:03:32;26.70;;;10.10;;
77880;SDS011;67077;50.298;18.996;2023-02-01T11:06:02;23.10;;;9.70;;
77880;SDS011;67077;50.298;18.996;2023-02-01T11:08:44;27.10;;;11.10;;
77880;SDS011;67077;50.298;18.996;2023-02-01T11:11:14;27.10;;;11.40;;
77880;SDS011;67077;50.298;18.996;2023-02-01T11:13:41;27.90;;;11.70;;
77880;SDS011;67077;50.298;18.996;2023-02-01T11:16:10;27.60;;;11.40;;
77880;SDS011;67077;50.298;18.996;2023-02-01T11:18:40;27.10;;;11.80;;
77880;SDS011;67077;50.298;18.996;2023-02-01T11:21:08;31.50;;;12.50;;
77880;SDS011;67077;50.298;18.996;2023-02-01T11:23:39;29.00;;;12.90;;
77880;SDS011;67077;50.298;18.996;2023-02-01T11:28:39;25.50;;;10.60;;
77880;SDS011;67077;50.298;18.996;2023-02-01T11:31:12;20.30;;;9.40;;
77880;SDS011;67077;50.298;18.996;2023-02-01T11:33:42;27.10;;;11.60;;
77880;SDS011;67077;50.298;18.996;2023-02-01T11:36:26;22.90;;;9.30;;
77880;SDS011;67077;50.298;18.996;2023-02-01T11:41:54;22.50;;;8.70;;
77880;SDS011;67077;50.298;18.996;2023-02-01T11:44:23;19.70;;;8.40;;
77880;SDS011;67077;50.298;18.996;2023-02-01T11:49:59;15.00;;;6.00;;
77880;SDS011;67077;50.298;18.996;2023-02-01T12:00:53;18.70;;;6.80;;
77880;SDS011;67077;50.298;18.996;2023-02-01T12:11:37;10.50;;;5.50;;
77880;SDS011;67077;50.298;18.996;2023-02-01T12:14:23;12.50;;;5.50;;
77880;SDS011;67077;50.298;18.996;2023-02-01T12:19:50;12.50;;;5.60;;
77880;SDS011;67077;50.298;18.996;2023-02-01T12:35:13;18.20;;;8.30;;
77880;SDS011;67077;50.298;18.996;2023-02-01T12:38:11;18.20;;;7.30;;
77880;SDS011;67077;50.298;18.996;2023-02-01T12:40:56;16.20;;;7.20;;
77880;SDS011;67077;50.298;18.996;2023-02-01T12:43:47;18.10;;;8.10;;
77880;SDS011;67077;50.298;18.996;2023-02-01T12:48:59;13.70;;;7.00;;
77880;SDS011;67077;50.298;18.996;2023-02-01T12:51:34;13.10;;;6.80;;
77880;SDS011;67077;50.298;18.996;2023-02-01T12:57:00;14.30;;;6.30;;
77880;SDS011;67077;50.298;18.996;2023-02-01T12:59:40;19.30;;;7.70;;
77880;SDS011;67077;50.298;18.996;2023-02-01T13:02:22;19.50;;;9.20;;
77880;SDS011;67077;50.298;18.996;2023-02-01T13:07:53;21.80;;;9.00;;
77880;SDS011;67077;50.298;18.996;2023-02-01T13:13:04;14.80;;;7.20;;
77880;SDS011;67077;50.298;18.996;2023-02-01T13:15:38;14.40;;;6.70;;
77880;SDS011;67077;50.298;18.996;2023-02-01T13:18:13;13.60;;;5.90;;
77880;SDS011;67077;50.298;18.996;2023-02-01T13:25:54;16.70;;;7.40;;
77880;SDS011;67077;50.298;18.996;2023-02-01T13:45:05;24.90;;;10.50;;
77880;SDS011;67077;50.298;18.996;2023-02-01T13:47:42;20.50;;;9.20;;
77880;SDS011;67077;50.298;18.996;2023-02-01T13:52:59;18.30;;;8.10;;
77880;SDS011;67077;50.298;18.996;2023-02-01T14:00:46;15.00;;;7.60;;
77880;SDS011;67077;50.298;18.996;2023-02-01T14:03:21;16.00;;;7.60;;
77880;SDS011;67077;50.298;18.996;2023-02-01T14:17:30;12.90;;;7.10;;
77880;SDS011;67077;50.298;18.996;2023-02-01T14:19:36;14.50;;;7.20;;
77880;SDS011;67077;50.298;18.996;2023-02-01T14:24:51;16.10;;;8.10;;
77880;SDS011;67077;50.298;18.996;2023-02-01T14:27:24;14.70;;;7.70;;
77880;SDS011;67077;50.298;18.996;2023-02-01T14:29:58;14.00;;;7.40;;
77880;SDS011;67077;50.298;18.996;2023-02-01T14:32:35;13.00;;;6.20;;
77880;SDS011;67077;50.298;18.996;2023-02-01T14:35:17;14.10;;;7.90;;
77880;SDS011;67077;50.298;18.996;2023-02-01T14:37:53;18.50;;;9.10;;
77880;SDS011;67077;50.298;18.996;2023-02-01T14:40:28;18.10;;;8.70;;
77880;SDS011;67077;50.298;18.996;2023-02-01T14:42:56;18.20;;;9.60;;
77880;SDS011;67077;50.298;18.996;2023-02-01T14:58:15;21.50;;;10.10;;
77880;SDS011;67077;50.298;18.996;2023-02-01T15:01:01;17.60;;;9.50;;
77880;SDS011;67077;50.298;18.996;2023-02-01T15:03:41;20.60;;;9.90;;
77880;SDS011;67077;50.298;18.996;2023-02-01T15:06:22;19.90;;;10.40;;
77880;SDS011;67077;50.298;18.996;2023-02-01T15:09:09;21.50;;;11.20;;
77880;SDS011;67077;50.298;18.996;2023-02-01T15:14:42;20.80;;;11.50;;
77880;SDS011;67077;50.298;18.996;2023-02-01T15:17:23;24.20;;;13.50;;
77880;SDS011;67077;50.298;18.996;2023-02-01T15:20:12;23.90;;;12.80;;
77880;SDS011;67077;50.298;18.996;2023-02-01T15:22:41;24.00;;;13.20;;
77880;SDS011;67077;50.298;18.996;2023-02-01T15:25:20;27.50;;;13.90;;
77880;SDS011;67077;50.298;18.996;2023-02-01T15:27:49;23.60;;;10.80;;
77880;SDS011;67077;50.298;18.996;2023-02-01T15:30:20;25.40;;;13.70;;
77880;SDS011;67077;50.298;18.996;2023-02-01T15:33:04;28.00;;;13.90;;
77880;SDS011;67077;50.298;18.996;2023-02-01T15:35:39;30.20;;;15.80;;
77880;SDS011;67077;50.298;18.996;2023-02-01T15:43:46;30.80;;;15.80;;
77880;SDS011;67077;50.298;18.996;2023-02-01T15:46:28;24.30;;;11.80;;
77880;SDS011;67077;50.298;18.996;2023-02-01T15:48:58;25.30;;;12.00;;
77880;SDS011;67077;50.298;18.996;2023-02-01T15:51:25;23.70;;;11.60;;
77880;SDS011;67077;50.298;18.996;2023-02-01T15:53:56;24.60;;;12.30;;
77880;SDS011;67077;50.298;18.996;2023-02-01T15:56:28;30.10;;;16.10;;
77880;SDS011;67077;50.298;18.996;2023-02-01T15:59:01;29.90;;;15.50;;
77880;SDS011;67077;50.298;18.996;2023-02-01T16:01:30;24.30;;;12.30;;
77880;SDS011;67077;50.298;18.996;2023-02-01T16:06:46;28.60;;;15.60;;
77880;SDS011;67077;50.298;18.996;2023-02-01T16:09:15;30.00;;;15.10;;
77880;SDS011;67077;50.298;18.996;2023-02-01T16:14:22;21.20;;;10.70;;
77880;SDS011;67077;50.298;18.996;2023-02-01T16:16:50;22.50;;;11.50;;
77880;SDS011;67077;50.298;18.996;2023-02-01T16:19:18;24.80;;;12.30;;
77880;SDS011;67077;50.298;18.996;2023-02-01T16:21:46;22.90;;;10.30;;
77880;SDS011;67077;50.298;18.996;2023-02-01T16:24:13;19.90;;;9.70;;
77880;SDS011;67077;50.298;18.996;2023-02-01T16:26:40;21.50;;;10.20;;
77880;SDS011;67077;50.298;18.996;2023-02-01T16:29:07;18.70;;;9.50;;
77880;SDS011;67077;50.298;18.996;2023-02-01T16:31:35;23.80;;;11.20;;
77880;SDS011;67077;50.298;18.996;2023-02-01T16:34:04;24.40;;;12.20;;
77880;SDS011;67077;50.298;18.996;2023-02-01T16:36:33;28.20;;;12.50;;
77880;SDS011;67077;50.298;18.996;2023-02-01T16:39:00;24.50;;;12.90;;
77880;SDS011;67077;50.298;18.996;2023-02-01T16:41:29;26.30;;;13.80;;
77880;SDS011;67077;50.298;18.996;2023-02-01T16:43:56;27.00;;;12.50;;
77880;SDS011;67077;50.298;18.996;2023-02-01T16:46:23;26.80;;;13.30;;
77880;SDS011;67077;50.298;18.996;2023-02-01T16:48:53;29.90;;;13.80;;
77880;SDS011;67077;50.298;18.996;2023-02-01T16:51:23;24.50;;;12.10;;
77880;SDS011;67077;50.298;18.996;2023-02-01T16:53:52;22.30;;;10.20;;
77880;SDS011;67077;50.298;18.996;2023-02-01T16:56:21;21.10;;;9.50;;
77880;SDS011;67077;50.298;18.996;2023-02-01T16:58:49;20.60;;;10.10;;
77880;SDS011;67077;50.298;18.996;2023-02-01T17:01:17;25.50;;;11.10;;
77880;SDS011;67077;50.298;18.996;2023-02-01T17:03:45;20.70;;;9.40;;
77880;SDS011;67077;50.298;18.996;2023-02-01T17:06:16;26.60;;;12.00;;
77880;SDS011;67077;50.298;18.996;2023-02-01T17:08:55;24.60;;;10.10;;
77880;SDS011;67077;50.298;18.996;2023-02-01T17:11:25;26.60;;;11.30;;
77880;SDS011;67077;50.298;18.996;2023-02-01T17:13:52;23.60;;;11.30;;
77880;SDS011;67077;50.298;18.996;2023-02-01T17:16:29;27.10;;;12.20;;
77880;SDS011;67077;50.298;18.996;2023-02-01T17:19:10;24.10;;;11.00;;
77880;SDS011;67077;50.298;18.996;2023-02-01T17:21:46;24.40;;;9.50;;
77880;SDS011;67077;50.298;18.996;2023-02-01T17:24:16;18.50;;;9.60;;
77880;SDS011;67077;50.298;18.996;2023-02-01T17:26:44;21.10;;;9.30;;
77880;SDS011;67077;50.298;18.996;2023-02-01T17:29:12;16.00;;;7.90;;
77880;SDS011;67077;50.298;18.996;2023-02-01T17:31:42;24.00;;;10.60;;
77880;SDS011;67077;50.298;18.996;2023-02-01T17:34:11;25.40;;;10.80;;
77880;SDS011;67077;50.298;18.996;2023-02-01T17:36:41;23.30;;;11.20;;
77880;SDS011;67077;50.298;18.996;2023-02-01T17:39:08;27.20;;;12.30;;
77880;SDS011;67077;50.298;18.996;2023-02-01T17:41:36;24.50;;;11.40;;